Time;durP1;ratioP1;P1;durP2;ratioP2;P2;SDS_P1;SDS_P2;PMS_P1;PMS_P2;Temp;Humidity;BMP_temperature;BMP_pressure;BME280_temperature;BME280_humidity;BME280_pressure;Samples;Min_cycle;Max_cycle;Signal;HPM_P1;HPM_P2
2023/02/06 00:01:32;;;;;;;20.15;13.73;;;4.20;1.00;;;;;;4997518;28;20722;-78
2023/02/06 00:04:01;;;;;;;19.48;14.35;;;4.30;99.90;;;;;;4999899;28;20923;-77
2023/02/06 00:06:29;;;;;;;20.52;14.32;;;4.20;1.00;;;;;;4994689;28;20209;-78
2023/02/06 00:08:57;;;;;;;18.17;14.15;;;4.20;99.90;;;;;;5012100;28;20310;-78
2023/02/06 00:11:27;;;;;;;20.08;15.13;;;4.30;99.90;;;;;;4990322;28;20263;-78
2023/02/06 00:13:55;;;;;;;16.85;13.35;;;4.20;99.90;;;;;;4986306;28;20263;-77
2023/02/06 00:16:25;;;;;;;18.35;13.35;;;4.20;99.90;;;;;;4979959;28;20218;-77
2023/02/06 00:18:54;;;;;;;20.98;16.13;;;4.10;99.90;;;;;;4976271;28;21465;-77
2023/02/06 00:21:24;;;;;;;19.48;13.80;;;4.10;99.90;;;;;;4984325;28;20207;-75
2023/02/06 00:23:54;;;;;;;20.58;13.93;;;4.20;99.90;;;;;;4984609;28;20201;-77
2023/02/06 00:26:23;;;;;;;18.98;14.13;;;4.20;99.90;;;;;;4991571;28;20206;-78
2023/02/06 00:28:52;;;;;;;17.85;12.88;;;4.10;99.90;;;;;;4989187;28;20221;-77
2023/02/06 00:31:21;;;;;;;20.25;13.02;;;4.10;99.90;;;;;;4990059;28;20202;-79
2023/02/06 00:33:49;;;;;;;21.58;14.93;;;4.10;1.00;;;;;;4990463;28;20210;-78
2023/02/06 00:36:17;;;;;;;20.95;13.85;;;4.10;99.90;;;;;;4992957;28;20240;-78
2023/02/06 00:38:45;;;;;;;18.83;13.07;;;4.20;99.90;;;;;;4985850;28;20265;-78
2023/02/06 00:41:13;;;;;;;21.90;14.20;;;4.00;99.90;;;;;;4992496;28;20222;-78
2023/02/06 00:43:42;;;;;;;21.52;14.35;;;3.90;1.00;;;;;;4994813;28;20213;-78
2023/02/06 00:46:12;;;;;;;20.38;15.05;;;4.00;99.90;;;;;;4990763;28;20210;-78
2023/02/06 00:48:40;;;;;;;21.38;14.07;;;4.00;1.00;;;;;;4989980;28;20198;-78
2023/02/06 00:51:09;;;;;;;22.00;13.60;;;4.00;1.00;;;;;;4988470;28;20253;-77
2023/02/06 00:53:37;;;;;;;21.45;13.57;;;4.00;99.90;;;;;;4988987;28;20283;-78
2023/02/06 00:56:05;;;;;;;19.75;13.60;;;3.90;1.00;;;;;;4984953;28;20217;-78
2023/02/06 00:58:33;;;;;;;23.38;14.93;;;4.00;99.90;;;;;;4993068;28;20254;-78
2023/02/06 01:01:01;;;;;;;25.58;14.98;;;4.10;1.00;;;;;;4995956;28;20628;-78
2023/02/06 01:03:31;;;;;;;24.83;14.02;;;4.10;1.00;;;;;;4993866;28;20203;-78
2023/02/06 01:05:59;;;;;;;23.77;14.88;;;4.00;1.00;;;;;;4993349;28;20662;-79
2023/02/06 01:08:27;;;;;;;21.25;14.43;;;4.10;1.00;;;;;;4996206;28;20695;-79
2023/02/06 01:10:55;;;;;;;26.58;14.70;;;4.10;99.90;;;;;;4996299;28;20294;-78
2023/02/06 01:13:23;;;;;;;21.50;14.07;;;4.10;1.00;;;;;;4992988;28;20206;-78
2023/02/06 01:15:51;;;;;;;26.20;15.32;;;4.00;1.00;;;;;;4998410;28;20202;-79
2023/02/06 01:18:20;;;;;;;23.63;14.82;;;4.00;99.90;;;;;;4995551;28;20226;-78
2023/02/06 01:20:49;;;;;;;22.20;13.85;;;4.00;64.60;;;;;;4993888;28;20230;-77
2023/02/06 01:23:17;;;;;;;29.40;17.27;;;4.10;99.90;;;;;;4996365;28;20729;-78
2023/02/06 01:25:45;;;;;;;31.63;17.13;;;4.10;99.90;;;;;;4995215;28;20201;-78
2023/02/06 01:28:13;;;;;;;25.65;15.35;;;4.10;99.90;;;;;;4992452;28;20283;-77
2023/02/06 01:30:42;;;;;;;27.55;16.15;;;4.10;99.90;;;;;;4989775;28;20713;-78
2023/02/06 01:33:10;;;;;;;27.40;16.90;;;4.10;99.90;;;;;;4986748;28;20245;-78
2023/02/06 01:35:38;;;;;;;27.20;16.45;;;4.00;99.90;;;;;;4990341;28;20199;-77
2023/02/06 01:38:07;;;;;;;27.15;16.05;;;4.10;99.90;;;;;;4991778;28;20300;-78
2023/02/06 01:40:35;;;;;;;32.38;19.25;;;4.20;99.90;;;;;;4990646;28;20222;-78
2023/02/06 01:43:04;;;;;;;30.40;15.50;;;4.20;1.00;;;;;;4992308;28;20214;-77
2023/02/06 01:45:43;;;;;;;26.88;16.65;;;4.20;60.30;;;;;;4992768;28;20199;-77
2023/02/06 01:48:16;;;;;;;33.58;18.25;;;4.00;15.60;;;;;;4992138;28;20723;-77
2023/02/06 01:50:48;;;;;;;32.55;16.95;;;4.00;99.90;;;;;;4990325;28;20224;-77
2023/02/06 01:53:20;;;;;;;30.35;17.17;;;4.00;99.90;;;;;;4990436;28;20209;-79
2023/02/06 01:55:50;;;;;;;29.67;17.73;;;4.00;99.90;;;;;;4995442;28;20193;-77
2023/02/06 01:58:26;;;;;;;30.65;17.48;;;4.00;99.90;;;;;;4990891;28;20213;-77
2023/02/06 02:00:55;;;;;;;33.95;18.63;;;4.00;99.90;;;;;;4993972;28;20255;-77
2023/02/06 02:03:23;;;;;;;27.50;16.40;;;4.20;99.90;;;;;;4992975;28;20206;-78
2023/02/06 02:05:53;;;;;;;28.85;16.05;;;4.20;99.90;;;;;;4997664;28;20196;-77
2023/02/06 02:08:27;;;;;;;31.00;16.95;;;4.20;99.90;;;;;;4997618;28;20702;-78
2023/02/06 02:10:55;;;;;;;33.75;18.52;;;4.20;99.90;;;;;;4993548;28;20195;-78
2023/02/06 02:13:23;;;;;;;33.22;18.15;;;4.10;99.90;;;;;;4990156;28;20209;-77
2023/02/06 02:15:58;;;;;;;33.67;19.05;;;4.00;99.90;;;;;;4992222;28;20282;-78
2023/02/06 02:18:52;;;;;;;33.10;16.45;;;4.10;99.90;;;;;;4990249;28;20220;-77
2023/02/06 02:21:52;;;;;;;42.50;20.00;;;4.00;99.90;;;;;;4989087;28;20297;-78
2023/02/06 02:24:28;;;;;;;33.15;17.65;;;4.10;99.90;;;;;;4965535;28;20210;-78
2023/02/06 02:27:20;;;;;;;33.65;18.38;;;4.20;99.90;;;;;;4992897;28;20203;-78
2023/02/06 02:30:30;;;;;;;37.83;17.83;;;4.00;99.90;;;;;;4991426;28;20344;-77
2023/02/06 02:33:29;;;;;;;39.17;19.25;;;4.10;99.90;;;;;;4991311;28;20195;-77
2023/02/06 02:36:09;;;;;;;37.97;19.02;;;4.00;99.90;;;;;;4995105;28;20217;-77
2023/02/06 02:38:51;;;;;;;29.58;16.80;;;4.00;99.90;;;;;;4996767;28;20218;-77
2023/02/06 02:41:27;;;;;;;35.78;18.92;;;4.00;99.90;;;;;;4997988;28;20213;-78
2023/02/06 02:44:01;;;;;;;34.10;17.88;;;4.00;99.90;;;;;;4995168;28;20198;-78
2023/02/06 02:46:34;;;;;;;32.67;18.10;;;4.10;1.00;;;;;;4989865;28;20202;-76
2023/02/06 02:49:08;;;;;;;35.90;19.58;;;4.10;99.90;;;;;;4995144;28;20226;-77
2023/02/06 02:51:39;;;;;;;35.88;19.70;;;3.90;99.90;;;;;;4995045;28;20229;-77
2023/02/06 02:54:07;;;;;;;34.85;18.77;;;3.90;1.00;;;;;;4994410;28;20293;-77
2023/02/06 02:56:36;;;;;;;42.78;18.52;;;3.90;1.00;;;;;;4996714;28;20194;-78
2023/02/06 02:59:07;;;;;;;33.38;17.80;;;4.00;1.00;;;;;;4995487;28;20228;-78
2023/02/06 03:01:41;;;;;;;50.78;19.98;;;4.00;1.00;;;;;;5001949;28;20207;-76
2023/02/06 03:04:16;;;;;;;34.00;17.50;;;3.90;1.00;;;;;;4998951;28;20256;-78
2023/02/06 03:07:04;;;;;;;28.45;17.00;;;4.00;1.00;;;;;;4998404;28;20208;-77
2023/02/06 03:09:45;;;;;;;41.28;19.10;;;4.00;1.00;;;;;;4997085;28;20228;-78
2023/02/06 03:12:28;;;;;;;45.88;19.80;;;3.80;1.00;;;;;;4997576;28;20723;-78
2023/02/06 03:15:00;;;;;;;30.80;18.70;;;3.90;1.00;;;;;;4998486;28;20207;-78
2023/02/06 03:17:35;;;;;;;32.45;18.77;;;4.00;1.00;;;;;;4995984;28;20224;-78
2023/02/06 03:20:06;;;;;;;48.67;19.05;;;3.80;1.00;;;;;;4996174;28;20280;-78
2023/02/06 03:22:36;;;;;;;39.80;20.55;;;3.90;1.00;;;;;;4998779;28;20210;-77
2023/02/06 03:25:10;;;;;;;39.35;18.48;;;4.00;1.00;;;;;;4998615;28;20214;-78
2023/02/06 03:27:39;;;;;;;33.45;18.48;;;3.90;1.00;;;;;;5000050;28;20215;-78
2023/02/06 03:30:10;;;;;;;32.67;20.75;;;3.90;1.00;;;;;;4999323;28;20212;-78
2023/02/06 03:32:44;;;;;;;31.67;18.00;;;3.90;1.00;;;;;;5000473;28;20236;-76
2023/02/06 03:35:17;;;;;;;29.92;17.30;;;4.00;1.00;;;;;;4998697;28;20195;-77
2023/02/06 03:37:47;;;;;;;34.05;18.48;;;4.00;1.00;;;;;;4991752;28;20823;-77
2023/02/06 03:40:16;;;;;;;33.25;18.33;;;3.90;1.00;;;;;;4995933;28;21249;-77
2023/02/06 03:42:51;;;;;;;30.60;18.23;;;3.90;1.00;;;;;;4992513;28;20219;-75
2023/02/06 03:45:26;;;;;;;28.80;19.15;;;3.90;1.00;;;;;;4993859;28;20219;-77
2023/02/06 03:47:56;;;;;;;63.25;19.98;;;3.80;1.00;;;;;;4993098;28;20952;-77
2023/02/06 03:50:26;;;;;;;31.42;18.98;;;4.00;1.00;;;;;;4989185;28;20781;-77
2023/02/06 03:52:58;;;;;;;27.27;16.85;;;4.00;1.00;;;;;;4994870;28;20201;-76
2023/02/06 03:55:26;;;;;;;31.92;17.45;;;3.90;1.00;;;;;;4996905;28;20213;-77
2023/02/06 03:57:59;;;;;;;27.42;17.48;;;3.90;1.00;;;;;;4995387;28;20259;-76
2023/02/06 04:00:30;;;;;;;31.63;16.88;;;4.00;1.00;;;;;;4994142;28;20248;-77
2023/02/06 04:03:00;;;;;;;32.03;17.60;;;3.90;1.00;;;;;;4994470;28;20208;-77
2023/02/06 04:05:28;;;;;;;33.67;18.40;;;3.80;1.00;;;;;;4993015;28;20217;-77
2023/02/06 04:07:57;;;;;;;31.35;18.42;;;3.70;1.00;;;;;;4999299;28;20210;-77
2023/02/06 04:10:25;;;;;;;34.08;18.00;;;3.80;1.00;;;;;;4996780;28;20220;-78
2023/02/06 04:12:54;;;;;;;43.47;18.25;;;3.80;1.00;;;;;;4988859;28;20212;-77
2023/02/06 04:15:23;;;;;;;32.45;18.77;;;3.80;1.00;;;;;;4990272;28;20200;-77
2023/02/06 04:17:52;;;;;;;41.53;19.25;;;3.90;1.00;;;;;;4992610;28;20287;-78
2023/02/06 04:20:28;;;;;;;33.00;18.23;;;3.90;1.00;;;;;;4993984;28;20308;-78
2023/02/06 04:22:58;;;;;;;34.53;19.50;;;4.00;1.00;;;;;;4992347;28;20239;-78
2023/02/06 04:25:26;;;;;;;33.13;17.75;;;3.90;99.90;;;;;;4995810;28;20240;-78
2023/02/06 04:27:54;;;;;;;36.28;18.73;;;3.90;1.00;;;;;;4993148;28;20303;-78
2023/02/06 04:30:23;;;;;;;33.28;18.25;;;3.90;99.90;;;;;;4988841;28;20762;-78
2023/02/06 04:32:51;;;;;;;33.40;16.90;;;3.90;1.00;;;;;;4995526;28;20214;-78
2023/02/06 04:35:19;;;;;;;37.00;18.00;;;4.10;99.90;;;;;;4993727;28;20260;-77
2023/02/06 04:37:47;;;;;;;34.80;16.83;;;4.00;99.90;;;;;;4995600;28;20566;-78
2023/02/06 04:40:17;;;;;;;30.58;16.33;;;3.90;99.90;;;;;;4996206;28;20230;-78
2023/02/06 04:42:45;;;;;;;33.88;18.50;;;4.00;99.90;;;;;;4991653;28;20868;-77
2023/02/06 04:45:13;;;;;;;34.95;18.70;;;4.00;99.90;;;;;;4988964;28;20199;-78
2023/02/06 04:47:42;;;;;;;26.48;16.60;;;4.00;99.90;;;;;;4997721;28;20259;-76
2023/02/06 04:50:10;;;;;;;30.00;16.88;;;4.00;35.90;;;;;;4993352;28;20228;-78
2023/02/06 04:52:38;;;;;;;27.50;15.13;;;3.90;99.90;;;;;;4999309;28;20200;-77
2023/02/06 04:55:07;;;;;;;28.00;16.33;;;3.90;99.90;;;;;;4997792;28;20199;-78
2023/02/06 04:57:37;;;;;;;30.63;16.80;;;4.10;99.90;;;;;;4999464;28;20236;-78
2023/02/06 05:00:07;;;;;;;34.60;17.50;;;4.00;1.00;;;;;;4991805;28;20757;-78
2023/02/06 05:02:36;;;;;;;27.17;16.45;;;4.00;1.00;;;;;;4994622;28;20198;-78
2023/02/06 05:05:08;;;;;;;31.83;17.45;;;3.90;1.00;;;;;;4990284;28;20263;-77
2023/02/06 05:07:37;;;;;;;33.60;19.92;;;4.00;99.00;;;;;;4997181;28;20232;-77
2023/02/06 05:10:07;;;;;;;34.33;17.92;;;4.00;63.50;;;;;;4994648;28;20219;-76
2023/02/06 05:12:37;;;;;;;36.35;18.02;;;4.00;99.90;;;;;;4993687;28;20226;-76
2023/02/06 05:15:06;;;;;;;31.08;18.42;;;4.00;99.90;;;;;;4994932;28;20208;-79
2023/02/06 05:17:34;;;;;;;34.13;19.27;;;4.00;99.90;;;;;;4996296;28;21104;-79
2023/02/06 05:20:02;;;;;;;32.10;19.77;;;4.00;99.90;;;;;;4993090;28;20656;-78
2023/02/06 05:22:30;;;;;;;36.40;22.73;;;4.00;62.90;;;;;;4995241;28;20691;-77
2023/02/06 05:24:58;;;;;;;30.08;18.05;;;4.00;1.00;;;;;;4999305;28;20249;-76
2023/02/06 05:27:26;;;;;;;36.20;19.38;;;4.00;1.00;;;;;;4992307;28;20264;-78
2023/02/06 05:29:56;;;;;;;31.98;19.25;;;4.00;99.90;;;;;;4994129;28;20222;-78
2023/02/06 05:32:24;;;;;;;35.22;18.73;;;3.90;1.00;;;;;;4990348;28;20201;-78
2023/02/06 05:34:52;;;;;;;31.83;18.98;;;3.90;1.00;;;;;;4993619;28;20204;-79
2023/02/06 05:37:23;;;;;;;36.55;19.33;;;4.00;47.90;;;;;;4992525;28;20212;-78
2023/02/06 05:39:51;;;;;;;34.80;21.50;;;4.10;1.00;;;;;;4995573;28;20250;-78
2023/02/06 05:42:19;;;;;;;33.00;19.67;;;4.10;99.90;;;;;;4988045;28;20222;-78
2023/02/06 05:44:47;;;;;;;35.25;19.77;;;4.10;99.90;;;;;;4989652;28;20747;-79
2023/02/06 05:47:17;;;;;;;33.20;21.00;;;4.10;1.00;;;;;;4991896;28;20730;-78
2023/02/06 05:49:47;;;;;;;32.50;19.35;;;4.10;1.00;;;;;;4990822;28;20903;-78
2023/02/06 05:52:15;;;;;;;33.15;18.15;;;4.10;1.00;;;;;;4992026;28;20190;-79
2023/02/06 05:54:44;;;;;;;29.58;19.60;;;4.00;99.90;;;;;;4990711;28;20748;-78
2023/02/06 05:57:12;;;;;;;32.17;20.70;;;4.10;1.00;;;;;;4994022;28;20208;-79
2023/02/06 05:59:40;;;;;;;29.80;17.67;;;4.20;85.90;;;;;;4992352;28;20224;-79
2023/02/06 06:02:08;;;;;;;31.95;19.80;;;4.10;99.90;;;;;;4994299;28;20795;-79
2023/02/06 06:04:37;;;;;;;30.10;18.30;;;4.00;99.90;;;;;;4993186;28;20244;-78
2023/02/06 06:07:06;;;;;;;28.45;18.25;;;4.10;99.90;;;;;;4994140;28;20213;-79
2023/02/06 06:09:34;;;;;;;28.45;18.20;;;4.00;99.90;;;;;;4993762;28;20805;-79
2023/02/06 06:12:02;;;;;;;29.05;18.58;;;3.90;12.10;;;;;;4994700;28;21214;-79
2023/02/06 06:14:30;;;;;;;28.23;18.70;;;4.00;99.90;;;;;;4998047;28;20213;-79
2023/02/06 06:16:59;;;;;;;27.48;18.30;;;3.80;1.00;;;;;;5000699;28;20952;-79
2023/02/06 06:19:27;;;;;;;27.83;18.10;;;3.90;1.00;;;;;;4997389;28;20220;-79
2023/02/06 06:21:57;;;;;;;26.63;18.92;;;3.90;1.00;;;;;;5000416;28;20223;-79
2023/02/06 06:24:25;;;;;;;35.45;19.25;;;3.90;99.90;;;;;;4999906;28;20212;-80
2023/02/06 06:26:54;;;;;;;24.60;17.33;;;3.90;1.00;;;;;;4997148;28;20234;-80
2023/02/06 06:29:22;;;;;;;30.55;18.65;;;4.00;1.00;;;;;;4996929;28;20217;-80
2023/02/06 06:31:50;;;;;;;23.63;14.25;;;4.10;1.00;;;;;;4999973;28;20213;-79
2023/02/06 06:34:18;;;;;;;21.50;15.65;;;4.10;1.00;;;;;;4995957;28;20205;-80
2023/02/06 06:36:46;;;;;;;21.55;13.93;;;4.10;1.00;;;;;;4999857;28;20198;-79
2023/02/06 06:39:16;;;;;;;22.98;14.90;;;4.10;1.00;;;;;;4999640;28;20228;-80
2023/02/06 06:41:44;;;;;;;25.35;14.75;;;4.10;99.90;;;;;;5000126;28;20222;-79
2023/02/06 06:44:12;;;;;;;29.35;17.73;;;4.00;1.00;;;;;;4995171;28;20398;-79
2023/02/06 06:46:40;;;;;;;27.40;15.95;;;4.10;99.90;;;;;;4996405;28;20624;-80
2023/02/06 06:49:09;;;;;;;26.42;16.90;;;4.10;99.90;;;;;;4995517;28;20872;-80
2023/02/06 06:51:37;;;;;;;25.08;16.98;;;4.10;1.00;;;;;;4995529;28;20747;-79
2023/02/06 06:54:05;;;;;;;22.60;15.68;;;4.10;1.00;;;;;;4999581;28;20195;-78
2023/02/06 06:56:35;;;;;;;28.55;17.42;;;4.20;99.90;;;;;;5002557;28;20202;-80
2023/02/06 06:59:03;;;;;;;24.30;17.98;;;4.10;1.00;;;;;;5006079;28;20320;-80
2023/02/06 07:01:31;;;;;;;25.65;18.70;;;4.00;1.00;;;;;;5001080;28;20409;-79
2023/02/06 07:03:59;;;;;;;26.45;17.40;;;4.00;99.90;;;;;;5005743;28;20209;-79
2023/02/06 07:06:28;;;;;;;23.73;15.75;;;4.10;99.90;;;;;;5009888;28;20202;-81
2023/02/06 07:08:56;;;;;;;20.90;15.60;;;4.00;99.90;;;;;;5000498;28;20276;-80
2023/02/06 07:11:25;;;;;;;19.88;15.85;;;3.90;99.90;;;;;;5001059;28;20206;-79
2023/02/06 07:13:54;;;;;;;24.02;17.45;;;4.00;99.90;;;;;;5000751;28;20229;-78
2023/02/06 07:16:23;;;;;;;23.30;15.57;;;4.00;1.00;;;;;;5005873;28;20233;-80
2023/02/06 07:18:51;;;;;;;21.35;16.02;;;4.00;1.00;;;;;;5002418;28;20198;-79
2023/02/06 07:21:19;;;;;;;22.55;17.42;;;4.00;99.90;;;;;;5003220;28;20218;-80
2023/02/06 07:23:48;;;;;;;20.60;15.90;;;4.00;99.90;;;;;;5004641;28;20958;-79
2023/02/06 07:26:16;;;;;;;21.70;14.93;;;4.10;1.00;;;;;;5004043;28;20209;-79
2023/02/06 07:28:44;;;;;;;18.90;15.35;;;4.00;99.90;;;;;;5001038;28;20209;-80
2023/02/06 07:31:13;;;;;;;23.20;15.70;;;3.90;60.20;;;;;;5000390;28;20192;-79
2023/02/06 07:33:42;;;;;;;24.08;14.73;;;4.00;99.90;;;;;;4994481;28;20206;-79
2023/02/06 07:36:11;;;;;;;18.00;13.55;;;3.90;99.90;;;;;;5003424;28;20204;-79
2023/02/06 07:38:39;;;;;;;23.70;15.82;;;3.90;1.00;;;;;;4997597;28;20198;-79
2023/02/06 07:41:08;;;;;;;19.70;14.70;;;3.90;99.90;;;;;;5000710;28;20215;-79
2023/02/06 07:43:39;;;;;;;18.17;14.38;;;4.00;1.00;;;;;;4997470;28;20212;-79
2023/02/06 07:46:07;;;;;;;19.75;13.68;;;4.00;1.00;;;;;;4997366;28;20503;-79
2023/02/06 07:48:37;;;;;;;20.33;15.07;;;4.10;99.90;;;;;;4995955;28;20565;-79
2023/02/06 07:51:07;;;;;;;18.52;13.45;;;4.10;1.00;;;;;;4997792;28;20284;-79
2023/02/06 07:53:36;;;;;;;17.20;14.13;;;4.00;99.90;;;;;;4995347;28;20290;-79
2023/02/06 07:56:10;;;;;;;18.90;14.88;;;4.00;1.00;;;;;;4999075;28;20248;-77
2023/02/06 07:58:39;;;;;;;16.30;13.25;;;4.00;99.90;;;;;;5012363;28;20585;-79
2023/02/06 08:01:08;;;;;;;15.95;12.27;;;3.90;1.00;;;;;;4996308;28;20875;-79
2023/02/06 08:03:38;;;;;;;22.38;13.63;;;3.90;1.00;;;;;;4993507;28;20291;-79
2023/02/06 08:06:10;;;;;;;16.17;12.20;;;3.90;59.30;;;;;;4993579;28;20277;-80
2023/02/06 08:08:39;;;;;;;17.35;13.73;;;3.90;66.20;;;;;;4995429;28;20264;-79
2023/02/06 08:11:08;;;;;;;17.58;13.13;;;4.00;1.00;;;;;;4998584;28;20182;-79
2023/02/06 08:13:37;;;;;;;17.13;13.38;;;4.10;1.00;;;;;;4995721;28;20207;-79
2023/02/06 08:16:07;;;;;;;17.42;13.00;;;4.00;1.00;;;;;;4997395;28;20190;-81
2023/02/06 08:18:36;;;;;;;14.07;10.73;;;4.10;1.00;;;;;;4996677;28;20213;-79
2023/02/06 08:21:07;;;;;;;15.05;11.02;;;3.90;99.90;;;;;;4998128;28;20206;-79
2023/02/06 08:23:35;;;;;;;12.65;9.85;;;4.00;1.00;;;;;;4997704;28;20201;-79
2023/02/06 08:26:06;;;;;;;14.68;11.55;;;4.10;1.00;;;;;;4995925;28;20215;-80
2023/02/06 08:28:35;;;;;;;16.00;13.00;;;4.10;99.90;;;;;;4996593;28;20200;-79
2023/02/06 08:31:10;;;;;;;15.23;12.85;;;4.20;1.00;;;;;;5001508;28;20203;-78
2023/02/06 08:33:40;;;;;;;16.52;13.02;;;4.20;1.00;;;;;;5001771;28;20292;-79
2023/02/06 08:36:09;;;;;;;16.85;13.40;;;4.30;1.00;;;;;;4999324;28;20209;-79
2023/02/06 08:38:38;;;;;;;15.52;12.07;;;4.30;1.00;;;;;;4996772;28;20197;-78
2023/02/06 08:41:16;;;;;;;18.75;13.48;;;4.40;1.00;;;;;;4992134;28;20199;-76
2023/02/06 08:43:44;;;;;;;15.77;11.95;;;4.40;1.00;;;;;;4999625;28;20206;-78
2023/02/06 08:46:13;;;;;;;15.05;12.75;;;4.30;1.00;;;;;;4998153;28;20216;-78
2023/02/06 08:48:43;;;;;;;14.27;11.68;;;4.40;99.90;;;;;;5001961;28;20206;-78
2023/02/06 08:51:12;;;;;;;13.27;10.93;;;4.40;99.90;;;;;;5002538;28;20304;-79
2023/02/06 08:53:40;;;;;;;16.80;11.80;;;4.40;99.90;;;;;;4994991;28;20978;-80
2023/02/06 08:56:10;;;;;;;13.95;11.23;;;4.40;86.10;;;;;;4995974;28;20739;-77
2023/02/06 08:58:39;;;;;;;16.90;12.10;;;4.40;56.40;;;;;;4998403;28;20214;-79
2023/02/06 09:01:08;;;;;;;14.68;10.75;;;4.40;99.90;;;;;;4997148;28;20672;-79
2023/02/06 09:03:37;;;;;;;14.68;12.15;;;4.40;99.90;;;;;;4999029;28;20587;-79
2023/02/06 09:06:07;;;;;;;14.40;11.90;;;4.30;99.90;;;;;;4997760;28;20741;-79
2023/02/06 09:08:37;;;;;;;19.90;11.35;;;4.30;99.90;;;;;;5014845;28;20273;-78
2023/02/06 09:11:07;;;;;;;13.38;11.13;;;4.30;1.00;;;;;;5000548;28;20213;-78
2023/02/06 09:13:36;;;;;;;17.00;10.70;;;4.40;99.90;;;;;;4999342;28;20296;-77
2023/02/06 09:16:05;;;;;;;12.07;10.68;;;4.30;99.90;;;;;;4999248;28;20739;-80
2023/02/06 09:18:34;;;;;;;13.23;10.80;;;4.30;68.00;;;;;;4998616;28;20232;-78
2023/02/06 09:21:10;;;;;;;13.98;10.60;;;4.30;77.40;;;;;;4997644;28;20207;-80
2023/02/06 09:23:39;;;;;;;10.50;7.60;;;4.30;99.90;;;;;;4999271;28;20229;-79
2023/02/06 09:26:07;;;;;;;10.90;9.55;;;4.20;1.00;;;;;;4994775;28;20231;-79
2023/02/06 09:28:35;;;;;;;14.40;9.90;;;4.20;1.00;;;;;;4989346;28;20316;-79
2023/02/06 09:31:03;;;;;;;13.98;10.77;;;4.30;1.00;;;;;;4986342;28;20207;-80
2023/02/06 09:33:32;;;;;;;11.68;9.98;;;4.30;1.00;;;;;;4983126;28;20195;-79
2023/02/06 09:36:04;;;;;;;14.00;9.20;;;4.40;1.00;;;;;;4987662;28;21899;-79
2023/02/06 09:38:35;;;;;;;9.02;8.10;;;4.40;1.00;;;;;;4984986;28;20213;-80
2023/02/06 09:41:06;;;;;;;9.55;7.65;;;4.30;1.00;;;;;;4986255;28;20202;-80
2023/02/06 09:43:35;;;;;;;9.10;8.15;;;4.30;1.00;;;;;;4988598;28;20819;-79
2023/02/06 09:46:09;;;;;;;10.48;7.78;;;4.40;1.00;;;;;;4984065;28;20210;-80
2023/02/06 09:48:39;;;;;;;19.20;10.25;;;4.30;1.00;;;;;;4987229;28;20194;-79
2023/02/06 09:51:14;;;;;;;10.68;8.63;;;4.40;1.00;;;;;;4996547;28;20202;-79
2023/02/06 09:53:51;;;;;;;8.40;6.60;;;4.40;1.00;;;;;;4993860;28;20594;-80
2023/02/06 09:56:26;;;;;;;12.10;7.45;;;4.40;1.00;;;;;;4994441;28;20229;-79
2023/02/06 09:59:03;;;;;;;9.05;7.80;;;4.40;99.90;;;;;;4993121;28;20264;-77
2023/02/06 10:01:39;;;;;;;8.83;6.87;;;4.40;1.00;;;;;;4986807;28;20201;-79
2023/02/06 10:04:27;;;;;;;8.30;7.47;;;4.40;99.90;;;;;;4988286;28;20571;-81
2023/02/06 10:07:04;;;;;;;8.50;7.60;;;4.40;1.00;;;;;;5002523;28;20204;-79
2023/02/06 10:09:39;;;;;;;9.15;8.02;;;4.40;1.00;;;;;;4996806;28;20238;-80
2023/02/06 10:12:14;;;;;;;9.63;8.43;;;4.40;1.00;;;;;;4995019;28;20228;-80
2023/02/06 10:14:47;;;;;;;10.88;8.35;;;4.40;1.00;;;;;;4990710;28;20700;-79
2023/02/06 10:17:20;;;;;;;9.32;6.68;;;4.40;1.00;;;;;;4991318;28;20244;-80
2023/02/06 10:19:56;;;;;;;7.93;7.13;;;4.40;1.00;;;;;;4993064;28;20308;-80
2023/02/06 10:22:30;;;;;;;7.22;5.55;;;4.50;99.90;;;;;;4995119;28;20228;-79
2023/02/06 10:25:14;;;;;;;7.75;6.47;;;4.50;99.90;;;;;;5004131;28;20199;-80
2023/02/06 10:27:44;;;;;;;6.70;5.68;;;4.40;99.90;;;;;;5003581;28;20713;-79
2023/02/06 10:30:18;;;;;;;8.27;6.40;;;4.30;99.90;;;;;;4999790;28;20896;-79
2023/02/06 10:32:55;;;;;;;8.90;5.43;;;4.40;99.90;;;;;;4995157;28;20196;-79
2023/02/06 10:35:34;;;;;;;6.38;3.55;;;4.40;99.90;;;;;;4994847;28;20197;-78
2023/02/06 10:38:37;;;;;;;5.30;4.25;;;4.40;94.10;;;;;;5000906;28;20259;-79
2023/02/06 10:41:15;;;;;;;3.65;2.75;;;4.30;22.70;;;;;;4988371;28;20424;-79
2023/02/06 10:43:49;;;;;;;5.20;3.95;;;4.30;1.00;;;;;;4989123;28;20325;-78
2023/02/06 10:46:38;;;;;;;3.80;3.50;;;4.30;1.00;;;;;;4980102;28;20225;-78
2023/02/06 10:49:14;;;;;;;3.80;3.42;;;4.20;1.00;;;;;;4992097;28;20227;-78
2023/02/06 10:51:47;;;;;;;4.22;3.25;;;4.30;6.90;;;;;;4988764;28;20592;-78
2023/02/06 10:54:19;;;;;;;3.75;3.45;;;4.30;1.00;;;;;;4988959;28;20214;-78
2023/02/06 10:56:50;;;;;;;3.75;3.42;;;4.30;1.00;;;;;;4997570;28;20209;-79
2023/02/06 10:59:26;;;;;;;3.78;3.47;;;4.30;1.00;;;;;;5001342;28;20632;-79
2023/02/06 11:02:03;;;;;;;4.80;3.75;;;4.30;1.00;;;;;;5000212;28;20202;-78
2023/02/06 11:04:38;;;;;;;3.60;3.30;;;4.40;1.00;;;;;;5001137;28;20289;-78
2023/02/06 11:07:12;;;;;;;4.20;3.50;;;4.40;1.00;;;;;;4999063;28;20198;-78
2023/02/06 11:09:40;;;;;;;6.97;3.47;;;4.30;1.00;;;;;;5000439;28;20249;-78
2023/02/06 11:12:25;;;;;;;3.88;3.58;;;4.40;1.00;;;;;;5004522;28;20232;-79
2023/02/06 11:14:55;;;;;;;6.05;4.25;;;4.40;1.00;;;;;;5000310;28;20206;-78
2023/02/06 11:17:27;;;;;;;10.45;6.65;;;4.30;1.00;;;;;;5000028;28;20261;-78
2023/02/06 11:20:02;;;;;;;9.95;6.60;;;4.30;1.00;;;;;;5003228;28;20222;-78
2023/02/06 11:22:31;;;;;;;8.20;6.57;;;4.30;1.00;;;;;;5001379;28;20229;-77
2023/02/06 11:25:21;;;;;;;5.75;5.20;;;4.30;1.00;;;;;;5002129;28;20523;-78
2023/02/06 11:27:50;;;;;;;5.30;4.30;;;4.30;1.00;;;;;;5000261;28;20605;-78
2023/02/06 11:30:30;;;;;;;5.72;4.60;;;4.40;6.00;;;;;;4999303;28;20229;-79
2023/02/06 11:33:01;;;;;;;5.28;4.30;;;4.40;1.00;;;;;;5002133;28;20262;-77
2023/02/06 11:35:36;;;;;;;4.90;4.50;;;4.30;1.00;;;;;;5003369;28;20206;-78
2023/02/06 11:38:13;;;;;;;5.65;3.75;;;4.40;1.00;;;;;;5003152;28;20562;-78
2023/02/06 11:40:42;;;;;;;4.25;3.40;;;4.30;1.00;;;;;;4996774;28;20242;-79
2023/02/06 11:43:20;;;;;;;5.28;3.55;;;4.30;1.00;;;;;;5003352;28;20229;-79
2023/02/06 11:45:50;;;;;;;6.10;3.53;;;4.30;1.00;;;;;;5000360;28;20218;-79
2023/02/06 11:48:35;;;;;;;6.40;5.85;;;4.40;1.00;;;;;;5006108;28;20226;-80
2023/02/06 11:51:04;;;;;;;7.45;5.00;;;4.40;1.00;;;;;;5003052;28;20219;-78
2023/02/06 11:53:32;;;;;;;4.70;4.30;;;4.40;1.00;;;;;;5014184;28;20518;-78
2023/02/06 11:56:05;;;;;;;4.78;4.38;;;4.40;1.00;;;;;;4996765;28;20255;-78
2023/02/06 11:58:34;;;;;;;4.65;4.05;;;4.50;1.00;;;;;;5000475;28;20225;-79
2023/02/06 12:01:08;;;;;;;4.47;4.07;;;4.40;1.00;;;;;;4999606;28;21129;-79
2023/02/06 12:03:38;;;;;;;3.67;3.38;;;4.50;1.00;;;;;;4998546;28;20480;-79
2023/02/06 12:06:12;;;;;;;4.20;3.90;;;4.50;1.00;;;;;;4999041;28;20290;-79
2023/02/06 12:08:46;;;;;;;4.03;3.72;;;4.60;1.00;;;;;;5001646;28;20294;-79
2023/02/06 12:11:19;;;;;;;4.80;3.78;;;4.50;1.00;;;;;;4996726;28;20213;-81
2023/02/06 12:13:53;;;;;;;35.40;16.98;;;4.60;1.00;;;;;;4990796;28;20800;-78
2023/02/06 12:16:23;;;;;;;13.55;6.47;;;4.70;1.00;;;;;;4994235;28;20255;-78
2023/02/06 12:18:55;;;;;;;4.82;4.35;;;4.60;1.00;;;;;;4994811;28;20303;-79
2023/02/06 12:21:41;;;;;;;5.15;4.05;;;4.60;1.00;;;;;;4992873;28;20575;-79
2023/02/06 12:24:23;;;;;;;4.45;4.05;;;4.60;1.00;;;;;;4989607;28;20311;-79
2023/02/06 12:26:53;;;;;;;9.32;4.38;;;4.60;1.00;;;;;;5009046;28;20199;-79
2023/02/06 12:29:26;;;;;;;4.50;4.10;;;4.60;1.00;;;;;;4996100;28;20239;-78
2023/02/06 12:32:04;;;;;;;7.45;4.60;;;4.60;1.00;;;;;;4999036;28;20203;-80
2023/02/06 12:34:44;;;;;;;4.38;4.07;;;4.50;1.00;;;;;;4998423;28;20533;-79
2023/02/06 12:37:20;;;;;;;4.18;3.75;;;4.50;1.00;;;;;;4996813;28;20198;-80
2023/02/06 12:39:51;;;;;;;4.53;4.13;;;4.50;1.00;;;;;;5003129;28;21176;-80
2023/02/06 12:42:36;;;;;;;4.05;3.67;;;4.50;1.00;;;;;;4992776;28;20206;-80
2023/02/06 12:45:16;;;;;;;6.30;5.13;;;4.50;1.00;;;;;;4988191;28;20214;-79
2023/02/06 12:47:49;;;;;;;4.57;4.28;;;4.50;1.00;;;;;;4991332;28;20630;-77
2023/02/06 12:50:21;;;;;;;4.20;3.80;;;4.50;1.00;;;;;;4990326;28;20267;-80
2023/02/06 12:52:53;;;;;;;5.18;4.28;;;4.40;1.00;;;;;;4989506;28;20599;-79
2023/02/06 12:55:26;;;;;;;5.63;4.80;;;4.40;1.00;;;;;;4991798;28;20205;-78
2023/02/06 12:57:55;;;;;;;6.85;4.07;;;4.40;1.00;;;;;;5001974;28;20198;-78
2023/02/06 13:00:49;;;;;;;4.30;4.03;;;4.50;1.00;;;;;;5004137;28;20792;-78
2023/02/06 13:03:31;;;;;;;4.10;3.65;;;4.30;1.00;;;;;;5000342;28;20225;-80
2023/02/06 13:06:12;;;;;;;6.30;3.90;;;4.50;1.00;;;;;;5000511;28;20221;-79
2023/02/06 13:08:45;;;;;;;3.10;2.75;;;4.40;1.00;;;;;;4999802;28;20198;-78
2023/02/06 13:11:24;;;;;;;5.05;3.60;;;4.50;1.00;;;;;;5002196;28;20191;-79